Lindenberg, Germany

3:42 AM CET on February 27, 2017 (GMT +0100)
Karl-Marx-Damm | | Change Station

Elev 141 ft 52.27 °N, 14.06 °E | Updated 4 minutes ago

Overcast
Overcast
46.6 °F
Feels Like 44 °F
N
5.0
Wind Variable Wind from SSW
Gusts 12.4 mph

Today
High -- | Low -- °F
--% Chance of Precip.
Yesterday
High -- | Low -- °F
Precip. -- in
Pressure 29.80 in
Visibility -9999.0 miles
Clouds
Windchill 44 °F
Dew Point 37 °F
Humidity 70%
Rainfall 0.00 in
Snow Depth Not available.
6:53 AM 5:39 PM
New Moon, 0% visible
METAR EDDB 270220Z 21006KT CAVOK 08/02 Q1009 NOSIG
Pressure 29.80 in
Visibility -9999.0 miles
Clouds
Windchill 44 °F
Dew Point 37 °F
Humidity 70%
Rainfall 0.00 in
Snow Depth Not available.
6:53 AM 5:39 PM
New Moon, 0% visible
METAR EDDB 270220Z 21006KT CAVOK 08/02 Q1009 NOSIG

Get Your Daily Forecast Email!

Thanks for signing up!

Be on the lookout for a verification email in your inbox.

You'll start receiving the daily forecast at 8 AM.

×

10-Day Weather Forecast

×

Almanac

Astronomy

Feb. 27, 2017 Rise Set
Actual Time
Civil Twilight
Nautical Twilight
Astronomical Twilight
Moon
Length of Visible Light
Length of Day
Tomorrow will be .
, % of the Moon is Illuminated

Today's Extremes

Country Highs Country Lows

Community

WunderPhotos

Upload Photos

1,962,540 photos uploaded!

WunderBlog® & News

Nearby

Air Quality

  Air Quality AQ Index Pollutant
Not available.

Snow Depth

Station Depth Elevation

Earthquake Activity

City Distance Mag. Time & Date
Minimum magnitude displayed is 2.5.

Coastal Water Temperatures

Place Temperature

Stations

Nearby Weather Stations

Station Location Temp. Windchill Dew Point Humidity Wind Precip. Elev Updated Type